sensor_id;sensor_type;location;lat;lon;timestamp;P1;durP1;ratioP1;P2;durP2;ratioP2
70301;SDS011;57706;56.326;43.882;2023-03-01T00:02:05;3.30;;;1.02;;
70301;SDS011;57706;56.326;43.882;2023-03-01T00:04:32;1.42;;;0.63;;
70301;SDS011;57706;56.326;43.882;2023-03-01T00:06:57;4.75;;;1.00;;
70301;SDS011;57706;56.326;43.882;2023-03-01T00:09:23;2.05;;;0.80;;
70301;SDS011;57706;56.326;43.882;2023-03-01T00:11:49;4.07;;;0.80;;
70301;SDS011;57706;56.326;43.882;2023-03-01T00:14:15;2.38;;;1.02;;
70301;SDS011;57706;56.326;43.882;2023-03-01T00:16:43;8.57;;;1.25;;
70301;SDS011;57706;56.326;43.882;2023-03-01T00:19:11;3.13;;;0.75;;
70301;SDS011;57706;56.326;43.882;2023-03-01T00:21:39;1.70;;;0.80;;
70301;SDS011;57706;56.326;43.882;2023-03-01T00:24:05;3.97;;;0.95;;
70301;SDS011;57706;56.326;43.882;2023-03-01T00:26:31;3.15;;;1.08;;
70301;SDS011;57706;56.326;43.882;2023-03-01T00:28:58;2.20;;;0.85;;
70301;SDS011;57706;56.326;43.882;2023-03-01T00:31:25;5.53;;;1.13;;
70301;SDS011;57706;56.326;43.882;2023-03-01T00:34:04;3.83;;;0.80;;
70301;SDS011;57706;56.326;43.882;2023-03-01T00:36:32;4.10;;;0.95;;
70301;SDS011;57706;56.326;43.882;2023-03-01T00:39:00;4.15;;;0.95;;
70301;SDS011;57706;56.326;43.882;2023-03-01T00:41:26;2.95;;;0.93;;
70301;SDS011;57706;56.326;43.882;2023-03-01T00:43:52;1.98;;;0.75;;
70301;SDS011;57706;56.326;43.882;2023-03-01T00:46:19;4.78;;;1.10;;
70301;SDS011;57706;56.326;43.882;2023-03-01T00:48:46;3.28;;;1.00;;
70301;SDS011;57706;56.326;43.882;2023-03-01T00:51:20;3.78;;;0.80;;
70301;SDS011;57706;56.326;43.882;2023-03-01T00:53:50;2.83;;;0.68;;
70301;SDS011;57706;56.326;43.882;2023-03-01T00:56:20;6.68;;;0.90;;
70301;SDS011;57706;56.326;43.882;2023-03-01T00:58:46;5.88;;;0.80;;
70301;SDS011;57706;56.326;43.882;2023-03-01T01:01:16;4.45;;;0.90;;
70301;SDS011;57706;56.326;43.882;2023-03-01T01:06:31;1.60;;;0.80;;
70301;SDS011;57706;56.326;43.882;2023-03-01T01:11:26;2.85;;;1.02;;
70301;SDS011;57706;56.326;43.882;2023-03-01T01:13:54;2.83;;;1.10;;
70301;SDS011;57706;56.326;43.882;2023-03-01T01:16:22;0.70;;;0.68;;
70301;SDS011;57706;56.326;43.882;2023-03-01T01:18:50;0.98;;;0.65;;
70301;SDS011;57706;56.326;43.882;2023-03-01T01:21:17;2.55;;;0.88;;
70301;SDS011;57706;56.326;43.882;2023-03-01T01:23:45;4.90;;;0.90;;
70301;SDS011;57706;56.326;43.882;2023-03-01T01:26:16;2.80;;;0.95;;
70301;SDS011;57706;56.326;43.882;2023-03-01T01:28:44;3.20;;;1.00;;
70301;SDS011;57706;56.326;43.882;2023-03-01T01:31:10;2.85;;;1.10;;
70301;SDS011;57706;56.326;43.882;2023-03-01T01:33:37;3.58;;;0.80;;
70301;SDS011;57706;56.326;43.882;2023-03-01T01:36:04;1.30;;;0.80;;
70301;SDS011;57706;56.326;43.882;2023-03-01T01:38:31;3.90;;;0.80;;
70301;SDS011;57706;56.326;43.882;2023-03-01T01:40:57;1.75;;;1.05;;
70301;SDS011;57706;56.326;43.882;2023-03-01T01:43:27;2.47;;;0.88;;
70301;SDS011;57706;56.326;43.882;2023-03-01T01:46:41;3.20;;;0.93;;
70301;SDS011;57706;56.326;43.882;2023-03-01T01:48:59;2.05;;;1.00;;
70301;SDS011;57706;56.326;43.882;2023-03-01T01:51:35;3.58;;;0.90;;
70301;SDS011;57706;56.326;43.882;2023-03-01T01:54:12;2.75;;;1.05;;
70301;SDS011;57706;56.326;43.882;2023-03-01T01:56:44;7.60;;;1.48;;
70301;SDS011;57706;56.326;43.882;2023-03-01T01:59:15;4.95;;;1.52;;
70301;SDS011;57706;56.326;43.882;2023-03-01T02:01:41;3.45;;;1.00;;
70301;SDS011;57706;56.326;43.882;2023-03-01T02:04:08;3.65;;;1.23;;
70301;SDS011;57706;56.326;43.882;2023-03-01T02:06:35;5.72;;;1.40;;
70301;SDS011;57706;56.326;43.882;2023-03-01T02:09:06;4.05;;;1.20;;
70301;SDS011;57706;56.326;43.882;2023-03-01T02:11:38;3.03;;;1.20;;
70301;SDS011;57706;56.326;43.882;2023-03-01T02:14:04;6.88;;;1.50;;
70301;SDS011;57706;56.326;43.882;2023-03-01T02:16:31;5.82;;;1.60;;
70301;SDS011;57706;56.326;43.882;2023-03-01T02:18:57;2.90;;;1.10;;
70301;SDS011;57706;56.326;43.882;2023-03-01T02:26:48;3.53;;;1.08;;
70301;SDS011;57706;56.326;43.882;2023-03-01T02:29:16;1.92;;;0.65;;
70301;SDS011;57706;56.326;43.882;2023-03-01T02:31:42;5.63;;;1.15;;
70301;SDS011;57706;56.326;43.882;2023-03-01T02:34:14;3.17;;;1.10;;
70301;SDS011;57706;56.326;43.882;2023-03-01T02:39:12;3.92;;;0.90;;
70301;SDS011;57706;56.326;43.882;2023-03-01T02:41:44;3.33;;;1.33;;
70301;SDS011;57706;56.326;43.882;2023-03-01T02:44:13;4.80;;;1.25;;
70301;SDS011;57706;56.326;43.882;2023-03-01T02:46:43;2.00;;;0.70;;
70301;SDS011;57706;56.326;43.882;2023-03-01T02:49:27;2.47;;;0.88;;
70301;SDS011;57706;56.326;43.882;2023-03-01T02:52:08;2.30;;;1.20;;
70301;SDS011;57706;56.326;43.882;2023-03-01T02:54:56;2.40;;;1.00;;
70301;SDS011;57706;56.326;43.882;2023-03-01T02:57:33;3.47;;;1.33;;
70301;SDS011;57706;56.326;43.882;2023-03-01T03:00:06;4.65;;;1.13;;
70301;SDS011;57706;56.326;43.882;2023-03-01T03:02:45;4.10;;;1.10;;
70301;SDS011;57706;56.326;43.882;2023-03-01T03:05:18;3.40;;;1.33;;
70301;SDS011;57706;56.326;43.882;2023-03-01T03:07:47;4.15;;;1.25;;
70301;SDS011;57706;56.326;43.882;2023-03-01T03:10:21;5.20;;;1.38;;
70301;SDS011;57706;56.326;43.882;2023-03-01T03:12:50;2.78;;;1.10;;
70301;SDS011;57706;56.326;43.882;2023-03-01T03:15:17;2.08;;;1.48;;
70301;SDS011;57706;56.326;43.882;2023-03-01T03:17:45;4.43;;;1.13;;
70301;SDS011;57706;56.326;43.882;2023-03-01T03:20:13;4.97;;;1.25;;
70301;SDS011;57706;56.326;43.882;2023-03-01T03:22:44;7.35;;;1.52;;
70301;SDS011;57706;56.326;43.882;2023-03-01T03:25:12;2.42;;;1.40;;
70301;SDS011;57706;56.326;43.882;2023-03-01T03:27:39;8.90;;;1.90;;
70301;SDS011;57706;56.326;43.882;2023-03-01T03:30:07;4.47;;;1.30;;
70301;SDS011;57706;56.326;43.882;2023-03-01T03:32:37;6.10;;;1.42;;
70301;SDS011;57706;56.326;43.882;2023-03-01T03:35:08;2.90;;;1.63;;
70301;SDS011;57706;56.326;43.882;2023-03-01T03:37:36;3.63;;;1.20;;
70301;SDS011;57706;56.326;43.882;2023-03-01T03:40:24;6.60;;;1.52;;
70301;SDS011;57706;56.326;43.882;2023-03-01T03:42:51;3.45;;;1.40;;
70301;SDS011;57706;56.326;43.882;2023-03-01T03:45:17;5.95;;;1.35;;
70301;SDS011;57706;56.326;43.882;2023-03-01T03:47:43;4.10;;;1.42;;
70301;SDS011;57706;56.326;43.882;2023-03-01T03:50:10;2.55;;;1.20;;
70301;SDS011;57706;56.326;43.882;2023-03-01T03:52:37;3.97;;;1.33;;
70301;SDS011;57706;56.326;43.882;2023-03-01T03:55:03;7.30;;;2.00;;
70301;SDS011;57706;56.326;43.882;2023-03-01T03:57:35;2.47;;;1.20;;
70301;SDS011;57706;56.326;43.882;2023-03-01T04:00:01;2.45;;;1.48;;
70301;SDS011;57706;56.326;43.882;2023-03-01T04:02:44;1.88;;;1.17;;
70301;SDS011;57706;56.326;43.882;2023-03-01T04:05:12;3.55;;;1.70;;
70301;SDS011;57706;56.326;43.882;2023-03-01T04:07:41;3.50;;;1.20;;
70301;SDS011;57706;56.326;43.882;2023-03-01T04:10:09;2.83;;;1.33;;
70301;SDS011;57706;56.326;43.882;2023-03-01T04:12:38;4.10;;;1.17;;
70301;SDS011;57706;56.326;43.882;2023-03-01T04:15:05;4.65;;;1.52;;
70301;SDS011;57706;56.326;43.882;2023-03-01T04:17:39;1.98;;;1.10;;
70301;SDS011;57706;56.326;43.882;2023-03-01T04:20:17;4.22;;;1.30;;
70301;SDS011;57706;56.326;43.882;2023-03-01T04:22:56;4.78;;;1.38;;
70301;SDS011;57706;56.326;43.882;2023-03-01T04:25:22;2.92;;;1.17;;
70301;SDS011;57706;56.326;43.882;2023-03-01T04:27:51;5.43;;;1.80;;
70301;SDS011;57706;56.326;43.882;2023-03-01T04:30:17;3.28;;;1.20;;
70301;SDS011;57706;56.326;43.882;2023-03-01T04:32:43;3.20;;;1.40;;
70301;SDS011;57706;56.326;43.882;2023-03-01T04:35:09;4.10;;;1.40;;
70301;SDS011;57706;56.326;43.882;2023-03-01T04:37:35;4.00;;;1.30;;
70301;SDS011;57706;56.326;43.882;2023-03-01T04:40:01;7.35;;;1.50;;
70301;SDS011;57706;56.326;43.882;2023-03-01T04:42:38;4.05;;;1.45;;
70301;SDS011;57706;56.326;43.882;2023-03-01T04:45:04;2.10;;;1.15;;
70301;SDS011;57706;56.326;43.882;2023-03-01T04:47:39;4.50;;;1.50;;
70301;SDS011;57706;56.326;43.882;2023-03-01T04:50:06;6.28;;;1.70;;
70301;SDS011;57706;56.326;43.882;2023-03-01T04:52:33;5.03;;;1.10;;
70301;SDS011;57706;56.326;43.882;2023-03-01T04:54:59;2.72;;;1.10;;
70301;SDS011;57706;56.326;43.882;2023-03-01T04:57:25;4.32;;;1.50;;
70301;SDS011;57706;56.326;43.882;2023-03-01T04:59:51;3.90;;;1.60;;
70301;SDS011;57706;56.326;43.882;2023-03-01T05:02:16;3.83;;;1.52;;
70301;SDS011;57706;56.326;43.882;2023-03-01T05:04:42;4.28;;;1.25;;
70301;SDS011;57706;56.326;43.882;2023-03-01T05:07:08;3.00;;;1.17;;
70301;SDS011;57706;56.326;43.882;2023-03-01T05:09:34;3.83;;;1.60;;
70301;SDS011;57706;56.326;43.882;2023-03-01T05:12:00;4.25;;;1.25;;
70301;SDS011;57706;56.326;43.882;2023-03-01T05:14:26;2.33;;;0.98;;
70301;SDS011;57706;56.326;43.882;2023-03-01T05:16:51;5.25;;;1.42;;
70301;SDS011;57706;56.326;43.882;2023-03-01T05:19:17;4.32;;;1.02;;
70301;SDS011;57706;56.326;43.882;2023-03-01T05:21:48;5.22;;;1.60;;
70301;SDS011;57706;56.326;43.882;2023-03-01T05:24:30;3.83;;;1.23;;
70301;SDS011;57706;56.326;43.882;2023-03-01T05:26:57;6.00;;;1.50;;
70301;SDS011;57706;56.326;43.882;2023-03-01T05:29:24;2.90;;;1.45;;
70301;SDS011;57706;56.326;43.882;2023-03-01T05:31:55;12.80;;;1.60;;
70301;SDS011;57706;56.326;43.882;2023-03-01T05:34:27;5.18;;;1.52;;
70301;SDS011;57706;56.326;43.882;2023-03-01T05:36:55;4.63;;;2.22;;
70301;SDS011;57706;56.326;43.882;2023-03-01T05:39:21;9.02;;;1.67;;
70301;SDS011;57706;56.326;43.882;2023-03-01T05:41:51;2.28;;;1.70;;
70301;SDS011;57706;56.326;43.882;2023-03-01T05:44:21;6.93;;;1.73;;
70301;SDS011;57706;56.326;43.882;2023-03-01T05:46:47;2.67;;;1.30;;
70301;SDS011;57706;56.326;43.882;2023-03-01T05:49:13;3.78;;;1.42;;
70301;SDS011;57706;56.326;43.882;2023-03-01T05:51:39;4.80;;;1.65;;
70301;SDS011;57706;56.326;43.882;2023-03-01T05:54:06;4.03;;;1.48;;
70301;SDS011;57706;56.326;43.882;2023-03-01T05:56:33;4.53;;;1.35;;
70301;SDS011;57706;56.326;43.882;2023-03-01T05:59:00;3.95;;;1.35;;
70301;SDS011;57706;56.326;43.882;2023-03-01T06:01:27;3.92;;;1.52;;
70301;SDS011;57706;56.326;43.882;2023-03-01T06:03:53;3.45;;;1.40;;
70301;SDS011;57706;56.326;43.882;2023-03-01T06:06:18;8.77;;;1.77;;
70301;SDS011;57706;56.326;43.882;2023-03-01T06:08:44;3.83;;;1.50;;
70301;SDS011;57706;56.326;43.882;2023-03-01T06:11:10;2.38;;;1.35;;
70301;SDS011;57706;56.326;43.882;2023-03-01T06:13:36;4.00;;;1.50;;
70301;SDS011;57706;56.326;43.882;2023-03-01T06:16:04;5.80;;;2.05;;
70301;SDS011;57706;56.326;43.882;2023-03-01T06:18:31;5.55;;;1.80;;
70301;SDS011;57706;56.326;43.882;2023-03-01T06:20:57;5.50;;;1.92;;
70301;SDS011;57706;56.326;43.882;2023-03-01T06:23:23;7.28;;;2.90;;
70301;SDS011;57706;56.326;43.882;2023-03-01T06:25:50;5.78;;;2.40;;
70301;SDS011;57706;56.326;43.882;2023-03-01T06:28:16;6.20;;;2.00;;
70301;SDS011;57706;56.326;43.882;2023-03-01T06:30:42;5.93;;;1.45;;
70301;SDS011;57706;56.326;43.882;2023-03-01T06:33:08;2.72;;;1.20;;
70301;SDS011;57706;56.326;43.882;2023-03-01T06:35:34;4.53;;;1.30;;
70301;SDS011;57706;56.326;43.882;2023-03-01T06:38:00;5.00;;;1.60;;
70301;SDS011;57706;56.326;43.882;2023-03-01T06:40:27;5.72;;;1.50;;
70301;SDS011;57706;56.326;43.882;2023-03-01T06:42:54;8.27;;;1.67;;
70301;SDS011;57706;56.326;43.882;2023-03-01T06:45:20;3.85;;;1.80;;
70301;SDS011;57706;56.326;43.882;2023-03-01T06:47:47;3.95;;;1.55;;
70301;SDS011;57706;56.326;43.882;2023-03-01T06:50:13;4.63;;;1.60;;
70301;SDS011;57706;56.326;43.882;2023-03-01T06:52:40;6.93;;;1.70;;
70301;SDS011;57706;56.326;43.882;2023-03-01T06:55:07;5.22;;;1.65;;
70301;SDS011;57706;56.326;43.882;2023-03-01T06:57:33;6.18;;;1.90;;
70301;SDS011;57706;56.326;43.882;2023-03-01T06:59:58;6.25;;;1.40;;
70301;SDS011;57706;56.326;43.882;2023-03-01T07:02:24;3.95;;;1.73;;
70301;SDS011;57706;56.326;43.882;2023-03-01T07:04:50;3.33;;;1.80;;
70301;SDS011;57706;56.326;43.882;2023-03-01T07:07:17;3.05;;;1.38;;
70301;SDS011;57706;56.326;43.882;2023-03-01T07:09:48;6.18;;;1.85;;
70301;SDS011;57706;56.326;43.882;2023-03-01T07:12:14;5.97;;;1.75;;
70301;SDS011;57706;56.326;43.882;2023-03-01T07:14:40;6.60;;;1.80;;
70301;SDS011;57706;56.326;43.882;2023-03-01T07:17:06;5.88;;;1.70;;
70301;SDS011;57706;56.326;43.882;2023-03-01T07:19:32;6.05;;;1.45;;
70301;SDS011;57706;56.326;43.882;2023-03-01T07:21:58;4.93;;;2.03;;
70301;SDS011;57706;56.326;43.882;2023-03-01T07:24:23;5.35;;;1.67;;
70301;SDS011;57706;56.326;43.882;2023-03-01T07:26:50;3.72;;;1.63;;
70301;SDS011;57706;56.326;43.882;2023-03-01T07:29:16;3.78;;;1.40;;
70301;SDS011;57706;56.326;43.882;2023-03-01T07:31:43;1.48;;;1.20;;
70301;SDS011;57706;56.326;43.882;2023-03-01T07:34:09;4.18;;;2.03;;
70301;SDS011;57706;56.326;43.882;2023-03-01T07:36:36;5.45;;;1.58;;
70301;SDS011;57706;56.326;43.882;2023-03-01T07:39:02;7.07;;;1.42;;
70301;SDS011;57706;56.326;43.882;2023-03-01T07:41:29;4.85;;;1.50;;
70301;SDS011;57706;56.326;43.882;2023-03-01T07:43:55;2.40;;;1.20;;
70301;SDS011;57706;56.326;43.882;2023-03-01T07:46:20;6.80;;;1.67;;
70301;SDS011;57706;56.326;43.882;2023-03-01T07:48:46;5.15;;;1.40;;
70301;SDS011;57706;56.326;43.882;2023-03-01T07:51:12;2.80;;;1.50;;
70301;SDS011;57706;56.326;43.882;2023-03-01T07:53:38;4.10;;;1.40;;
70301;SDS011;57706;56.326;43.882;2023-03-01T07:56:08;6.40;;;1.27;;
70301;SDS011;57706;56.326;43.882;2023-03-01T07:58:36;4.22;;;1.33;;
70301;SDS011;57706;56.326;43.882;2023-03-01T08:01:03;4.22;;;1.08;;
70301;SDS011;57706;56.326;43.882;2023-03-01T08:03:30;6.57;;;1.60;;
70301;SDS011;57706;56.326;43.882;2023-03-01T08:05:58;4.95;;;1.27;;
70301;SDS011;57706;56.326;43.882;2023-03-01T08:08:25;3.40;;;1.13;;
70301;SDS011;57706;56.326;43.882;2023-03-01T08:10:51;3.55;;;1.20;;
70301;SDS011;57706;56.326;43.882;2023-03-01T08:13:17;4.90;;;1.27;;
70301;SDS011;57706;56.326;43.882;2023-03-01T08:15:48;2.28;;;1.10;;
70301;SDS011;57706;56.326;43.882;2023-03-01T08:18:15;6.68;;;1.70;;
70301;SDS011;57706;56.326;43.882;2023-03-01T08:20:41;4.15;;;1.17;;
70301;SDS011;57706;56.326;43.882;2023-03-01T08:23:07;2.53;;;1.08;;
70301;SDS011;57706;56.326;43.882;2023-03-01T08:25:33;2.78;;;1.23;;
70301;SDS011;57706;56.326;43.882;2023-03-01T08:27:59;2.47;;;1.17;;
70301;SDS011;57706;56.326;43.882;2023-03-01T08:30:24;2.20;;;1.25;;
70301;SDS011;57706;56.326;43.882;2023-03-01T08:32:50;2.28;;;1.00;;
70301;SDS011;57706;56.326;43.882;2023-03-01T08:35:17;4.30;;;1.20;;
70301;SDS011;57706;56.326;43.882;2023-03-01T08:37:43;5.55;;;1.23;;
70301;SDS011;57706;56.326;43.882;2023-03-01T08:40:09;3.00;;;1.08;;
70301;SDS011;57706;56.326;43.882;2023-03-01T08:42:36;3.03;;;1.30;;
70301;SDS011;57706;56.326;43.882;2023-03-01T08:45:02;2.17;;;1.30;;
70301;SDS011;57706;56.326;43.882;2023-03-01T08:47:29;4.72;;;1.00;;
70301;SDS011;57706;56.326;43.882;2023-03-01T08:49:55;4.45;;;1.55;;
70301;SDS011;57706;56.326;43.882;2023-03-01T08:52:21;7.60;;;1.50;;
70301;SDS011;57706;56.326;43.882;2023-03-01T08:54:48;4.72;;;1.40;;
70301;SDS011;57706;56.326;43.882;2023-03-01T08:57:14;2.63;;;1.30;;
70301;SDS011;57706;56.326;43.882;2023-03-01T08:59:40;3.05;;;1.40;;
70301;SDS011;57706;56.326;43.882;2023-03-01T09:02:10;2.95;;;1.38;;
70301;SDS011;57706;56.326;43.882;2023-03-01T09:04:39;3.30;;;1.52;;
70301;SDS011;57706;56.326;43.882;2023-03-01T09:07:05;3.28;;;1.23;;
70301;SDS011;57706;56.326;43.882;2023-03-01T09:09:31;4.65;;;1.40;;
70301;SDS011;57706;56.326;43.882;2023-03-01T09:11:57;3.72;;;1.67;;
70301;SDS011;57706;56.326;43.882;2023-03-01T09:14:22;4.55;;;1.50;;
70301;SDS011;57706;56.326;43.882;2023-03-01T09:16:48;3.08;;;0.93;;
70301;SDS011;57706;56.326;43.882;2023-03-01T09:19:14;5.63;;;1.35;;
70301;SDS011;57706;56.326;43.882;2023-03-01T09:21:40;7.28;;;1.80;;
70301;SDS011;57706;56.326;43.882;2023-03-01T09:24:13;3.90;;;0.95;;
70301;SDS011;57706;56.326;43.882;2023-03-01T09:26:40;5.05;;;1.50;;
70301;SDS011;57706;56.326;43.882;2023-03-01T09:29:06;3.25;;;1.40;;
70301;SDS011;57706;56.326;43.882;2023-03-01T09:31:31;3.60;;;1.52;;
70301;SDS011;57706;56.326;43.882;2023-03-01T09:33:57;3.67;;;1.42;;
70301;SDS011;57706;56.326;43.882;2023-03-01T09:36:24;5.95;;;1.30;;
70301;SDS011;57706;56.326;43.882;2023-03-01T09:38:52;2.92;;;1.20;;
70301;SDS011;57706;56.326;43.882;2023-03-01T09:41:28;3.28;;;1.40;;
70301;SDS011;57706;56.326;43.882;2023-03-01T09:44:42;3.35;;;1.17;;
70301;SDS011;57706;56.326;43.882;2023-03-01T09:47:32;2.55;;;1.05;;
70301;SDS011;57706;56.326;43.882;2023-03-01T09:52:42;1.55;;;1.05;;
70301;SDS011;57706;56.326;43.882;2023-03-01T09:55:12;1.35;;;0.85;;
70301;SDS011;57706;56.326;43.882;2023-03-01T10:02:56;4.10;;;1.48;;
70301;SDS011;57706;56.326;43.882;2023-03-01T10:05:34;5.38;;;1.50;;
70301;SDS011;57706;56.326;43.882;2023-03-01T10:10:54;3.67;;;1.45;;
70301;SDS011;57706;56.326;43.882;2023-03-01T10:16:03;4.78;;;1.50;;
70301;SDS011;57706;56.326;43.882;2023-03-01T10:18:37;4.65;;;1.27;;
70301;SDS011;57706;56.326;43.882;2023-03-01T10:21:20;2.97;;;1.50;;
70301;SDS011;57706;56.326;43.882;2023-03-01T10:23:46;4.65;;;1.20;;
70301;SDS011;57706;56.326;43.882;2023-03-01T10:31:23;4.82;;;1.70;;
70301;SDS011;57706;56.326;43.882;2023-03-01T10:33:54;2.40;;;1.05;;
70301;SDS011;57706;56.326;43.882;2023-03-01T10:36:23;1.27;;;1.00;;
70301;SDS011;57706;56.326;43.882;2023-03-01T10:38:50;3.10;;;1.30;;
70301;SDS011;57706;56.326;43.882;2023-03-01T10:41:22;3.63;;;1.20;;
70301;SDS011;57706;56.326;43.882;2023-03-01T10:43:51;2.97;;;1.13;;
70301;SDS011;57706;56.326;43.882;2023-03-01T10:49:37;5.55;;;1.35;;
70301;SDS011;57706;56.326;43.882;2023-03-01T10:51:46;4.63;;;1.38;;
70301;SDS011;57706;56.326;43.882;2023-03-01T10:56:55;4.60;;;1.50;;
70301;SDS011;57706;56.326;43.882;2023-03-01T10:59:27;5.07;;;2.47;;
70301;SDS011;57706;56.326;43.882;2023-03-01T11:05:00;5.75;;;1.83;;
70301;SDS011;57706;56.326;43.882;2023-03-01T11:07:48;4.05;;;1.35;;
70301;SDS011;57706;56.326;43.882;2023-03-01T11:10:23;4.45;;;1.80;;
70301;SDS011;57706;56.326;43.882;2023-03-01T11:12:56;6.13;;;1.90;;
70301;SDS011;57706;56.326;43.882;2023-03-01T11:15:41;5.25;;;1.73;;
70301;SDS011;57706;56.326;43.882;2023-03-01T11:18:22;8.68;;;2.00;;
70301;SDS011;57706;56.326;43.882;2023-03-01T11:20:48;4.40;;;1.60;;
70301;SDS011;57706;56.326;43.882;2023-03-01T11:23:18;5.75;;;1.80;;
70301;SDS011;57706;56.326;43.882;2023-03-01T11:25:57;4.85;;;1.70;;
70301;SDS011;57706;56.326;43.882;2023-03-01T11:28:26;2.53;;;1.10;;
70301;SDS011;57706;56.326;43.882;2023-03-01T11:39:24;2.95;;;1.60;;
70301;SDS011;57706;56.326;43.882;2023-03-01T11:42:19;2.35;;;0.90;;
70301;SDS011;57706;56.326;43.882;2023-03-01T11:44:52;2.88;;;0.90;;
70301;SDS011;57706;56.326;43.882;2023-03-01T11:50:12;3.75;;;1.33;;
70301;SDS011;57706;56.326;43.882;2023-03-01T12:03:41;3.20;;;1.10;;
70301;SDS011;57706;56.326;43.882;2023-03-01T12:09:23;2.75;;;1.00;;
70301;SDS011;57706;56.326;43.882;2023-03-01T12:12:11;3.20;;;1.10;;
70301;SDS011;57706;56.326;43.882;2023-03-01T12:17:54;2.53;;;1.17;;
70301;SDS011;57706;56.326;43.882;2023-03-01T12:31:10;3.05;;;1.42;;
70301;SDS011;57706;56.326;43.882;2023-03-01T12:50:24;1.92;;;1.45;;
70301;SDS011;57706;56.326;43.882;2023-03-01T12:53:01;2.95;;;1.40;;
70301;SDS011;57706;56.326;43.882;2023-03-01T12:55:33;2.83;;;1.33;;
70301;SDS011;57706;56.326;43.882;2023-03-01T13:01:27;3.65;;;1.50;;
70301;SDS011;57706;56.326;43.882;2023-03-01T13:04:06;2.13;;;1.00;;
70301;SDS011;57706;56.326;43.882;2023-03-01T13:06:44;2.33;;;0.95;;
70301;SDS011;57706;56.326;43.882;2023-03-01T13:12:03;3.72;;;1.40;;
70301;SDS011;57706;56.326;43.882;2023-03-01T13:16:57;1.80;;;1.20;;
70301;SDS011;57706;56.326;43.882;2023-03-01T13:19:25;3.70;;;1.92;;
70301;SDS011;57706;56.326;43.882;2023-03-01T13:21:55;3.47;;;1.92;;
70301;SDS011;57706;56.326;43.882;2023-03-01T13:24:25;3.03;;;1.33;;
70301;SDS011;57706;56.326;43.882;2023-03-01T13:29:51;2.72;;;1.40;;
70301;SDS011;57706;56.326;43.882;2023-03-01T13:32:23;1.40;;;1.30;;
70301;SDS011;57706;56.326;43.882;2023-03-01T13:34:55;2.30;;;1.30;;
70301;SDS011;57706;56.326;43.882;2023-03-01T13:39:51;4.03;;;1.35;;
70301;SDS011;57706;56.326;43.882;2023-03-01T13:42:35;4.93;;;1.30;;
70301;SDS011;57706;56.326;43.882;2023-03-01T13:45:48;1.80;;;1.10;;
70301;SDS011;57706;56.326;43.882;2023-03-01T13:50:58;2.53;;;1.25;;
70301;SDS011;57706;56.326;43.882;2023-03-01T13:53:31;2.17;;;1.10;;
70301;SDS011;57706;56.326;43.882;2023-03-01T13:56:02;3.47;;;1.50;;
70301;SDS011;57706;56.326;43.882;2023-03-01T13:58:44;4.55;;;1.70;;
70301;SDS011;57706;56.326;43.882;2023-03-01T14:01:21;5.05;;;2.20;;
70301;SDS011;57706;56.326;43.882;2023-03-01T14:03:53;6.70;;;2.03;;
70301;SDS011;57706;56.326;43.882;2023-03-01T14:06:24;3.97;;;1.70;;
70301;SDS011;57706;56.326;43.882;2023-03-01T14:09:39;5.72;;;1.90;;
70301;SDS011;57706;56.326;43.882;2023-03-01T14:20:48;3.42;;;2.22;;
70301;SDS011;57706;56.326;43.882;2023-03-01T14:23:01;6.85;;;2.25;;
70301;SDS011;57706;56.326;43.882;2023-03-01T14:25:34;5.55;;;1.55;;
70301;SDS011;57706;56.326;43.882;2023-03-01T14:28:03;6.20;;;1.88;;
70301;SDS011;57706;56.326;43.882;2023-03-01T14:30:45;6.10;;;1.83;;
70301;SDS011;57706;56.326;43.882;2023-03-01T14:35:52;8.07;;;2.53;;
70301;SDS011;57706;56.326;43.882;2023-03-01T14:38:28;5.53;;;2.03;;
70301;SDS011;57706;56.326;43.882;2023-03-01T14:40:58;5.00;;;2.08;;
70301;SDS011;57706;56.326;43.882;2023-03-01T14:43:27;3.58;;;1.98;;
70301;SDS011;57706;56.326;43.882;2023-03-01T14:45:55;4.60;;;1.98;;
70301;SDS011;57706;56.326;43.882;2023-03-01T14:48:21;5.30;;;2.30;;
70301;SDS011;57706;56.326;43.882;2023-03-01T14:50:49;8.55;;;2.60;;
70301;SDS011;57706;56.326;43.882;2023-03-01T14:53:24;6.35;;;2.75;;
70301;SDS011;57706;56.326;43.882;2023-03-01T14:55:56;6.75;;;2.70;;
70301;SDS011;57706;56.326;43.882;2023-03-01T14:58:27;7.53;;;2.50;;
70301;SDS011;57706;56.326;43.882;2023-03-01T15:01:01;6.22;;;2.80;;
70301;SDS011;57706;56.326;43.882;2023-03-01T15:03:42;6.50;;;2.90;;
70301;SDS011;57706;56.326;43.882;2023-03-01T15:06:11;6.82;;;2.80;;
70301;SDS011;57706;56.326;43.882;2023-03-01T15:08:42;5.57;;;3.05;;
70301;SDS011;57706;56.326;43.882;2023-03-01T15:11:22;7.40;;;2.50;;
70301;SDS011;57706;56.326;43.882;2023-03-01T15:13:52;11.95;;;4.78;;
70301;SDS011;57706;56.326;43.882;2023-03-01T15:16:40;5.60;;;1.95;;
70301;SDS011;57706;56.326;43.882;2023-03-01T15:19:07;4.07;;;1.85;;
70301;SDS011;57706;56.326;43.882;2023-03-01T15:21:36;7.50;;;1.90;;
70301;SDS011;57706;56.326;43.882;2023-03-01T15:26:31;9.27;;;2.75;;
70301;SDS011;57706;56.326;43.882;2023-03-01T15:31:37;6.45;;;2.30;;
70301;SDS011;57706;56.326;43.882;2023-03-01T15:34:24;5.95;;;2.30;;
70301;SDS011;57706;56.326;43.882;2023-03-01T15:36:59;5.22;;;2.28;;
70301;SDS011;57706;56.326;43.882;2023-03-01T15:39:43;7.13;;;2.22;;
70301;SDS011;57706;56.326;43.882;2023-03-01T15:45:21;4.18;;;2.25;;
70301;SDS011;57706;56.326;43.882;2023-03-01T15:47:53;3.10;;;1.80;;
70301;SDS011;57706;56.326;43.882;2023-03-01T15:50:28;6.45;;;3.05;;
70301;SDS011;57706;56.326;43.882;2023-03-01T15:52:58;8.05;;;2.83;;
70301;SDS011;57706;56.326;43.882;2023-03-01T15:55:27;7.53;;;3.00;;
70301;SDS011;57706;56.326;43.882;2023-03-01T16:00:41;4.95;;;2.45;;
70301;SDS011;57706;56.326;43.882;2023-03-01T16:03:10;4.22;;;1.77;;
70301;SDS011;57706;56.326;43.882;2023-03-01T16:05:37;5.03;;;2.30;;
70301;SDS011;57706;56.326;43.882;2023-03-01T16:08:04;4.68;;;2.00;;
70301;SDS011;57706;56.326;43.882;2023-03-01T16:10:32;4.40;;;1.77;;
70301;SDS011;57706;56.326;43.882;2023-03-01T16:12:59;3.92;;;1.45;;
70301;SDS011;57706;56.326;43.882;2023-03-01T16:15:26;4.68;;;2.00;;
70301;SDS011;57706;56.326;43.882;2023-03-01T16:17:57;4.28;;;1.85;;
70301;SDS011;57706;56.326;43.882;2023-03-01T16:20:27;3.55;;;1.80;;
70301;SDS011;57706;56.326;43.882;2023-03-01T16:22:57;4.57;;;2.15;;
70301;SDS011;57706;56.326;43.882;2023-03-01T16:25:26;4.43;;;1.58;;
70301;SDS011;57706;56.326;43.882;2023-03-01T16:27:54;3.72;;;1.50;;
70301;SDS011;57706;56.326;43.882;2023-03-01T16:30:21;3.85;;;1.85;;
70301;SDS011;57706;56.326;43.882;2023-03-01T16:32:50;3.58;;;1.30;;
70301;SDS011;57706;56.326;43.882;2023-03-01T16:35:19;3.15;;;1.35;;
70301;SDS011;57706;56.326;43.882;2023-03-01T16:37:46;8.50;;;1.60;;
70301;SDS011;57706;56.326;43.882;2023-03-01T16:40:25;3.50;;;1.63;;
70301;SDS011;57706;56.326;43.882;2023-03-01T16:45:21;4.85;;;1.85;;
70301;SDS011;57706;56.326;43.882;2023-03-01T16:47:48;4.30;;;1.60;;
70301;SDS011;57706;56.326;43.882;2023-03-01T16:50:15;4.20;;;1.70;;
70301;SDS011;57706;56.326;43.882;2023-03-01T16:52:41;2.42;;;1.40;;
70301;SDS011;57706;56.326;43.882;2023-03-01T16:55:07;3.75;;;1.70;;
70301;SDS011;57706;56.326;43.882;2023-03-01T16:57:35;4.20;;;1.40;;
70301;SDS011;57706;56.326;43.882;2023-03-01T17:00:04;2.80;;;1.30;;
70301;SDS011;57706;56.326;43.882;2023-03-01T17:02:35;5.38;;;1.60;;
70301;SDS011;57706;56.326;43.882;2023-03-01T17:05:02;3.17;;;1.50;;
70301;SDS011;57706;56.326;43.882;2023-03-01T17:07:30;2.65;;;1.33;;